createdAt,value
2022-11-24T00:01:10.437Z,82.03
2022-11-24T00:03:37.417Z,82.53
2022-11-24T00:06:08.207Z,83.87
2022-11-24T00:08:35.576Z,82.64
2022-11-24T00:11:07.291Z,85.37
2022-11-24T00:13:34.075Z,83.49
2022-11-24T00:16:11.715Z,82.78
2022-11-24T00:18:39.215Z,82.30
2022-11-24T00:21:06.181Z,83.82
2022-11-24T00:23:33.018Z,86.74
2022-11-24T00:26:20.651Z,89.71
2022-11-24T00:28:48.100Z,88.62
2022-11-24T00:31:19.878Z,90.00
2022-11-24T00:33:49.595Z,91.04
2022-11-24T00:36:16.790Z,89.12
2022-11-24T00:38:43.967Z,87.57
2022-11-24T00:41:10.849Z,88.59
2022-11-24T00:43:37.452Z,87.86
2022-11-24T00:46:04.341Z,87.73
2022-11-24T00:48:31.356Z,87.69
2022-11-24T00:51:05.991Z,89.20
2022-11-24T00:53:32.652Z,88.70
2022-11-24T00:55:59.414Z,87.60
2022-11-24T00:58:26.218Z,86.26
2022-11-24T01:00:53.070Z,83.29
2022-11-24T01:03:20.237Z,83.29
2022-11-24T01:05:46.928Z,86.40
2022-11-24T01:08:13.750Z,85.12
2022-11-24T01:10:40.467Z,85.56
2022-11-24T01:13:07.181Z,85.10
2022-11-24T01:15:35.580Z,84.74
2022-11-24T01:18:02.614Z,84.57
2022-11-24T01:20:29.494Z,84.60
2022-11-24T01:22:56.121Z,85.31
2022-11-24T01:25:22.818Z,84.03
2022-11-24T01:27:49.458Z,85.17
2022-11-24T01:30:16.200Z,85.11
2022-11-24T01:32:42.831Z,84.18
2022-11-24T01:35:09.726Z,84.68
2022-11-24T01:37:36.333Z,86.59
2022-11-24T01:40:03.356Z,87.18
2022-11-24T01:42:40.644Z,86.52
2022-11-24T01:45:31.459Z,85.50
2022-11-24T01:47:58.092Z,83.98
2022-11-24T01:50:24.987Z,82.78
2022-11-24T01:52:53.201Z,80.71
2022-11-24T01:55:21.916Z,80.04
2022-11-24T01:57:51.742Z,80.45
2022-11-24T02:00:18.882Z,81.83
2022-11-24T02:02:45.775Z,81.06
2022-11-24T02:05:38.533Z,80.93
2022-11-24T02:08:05.300Z,82.26
2022-11-24T02:10:32.014Z,82.08
2022-11-24T02:12:59.118Z,81.45
2022-11-24T02:15:25.859Z,81.02
2022-11-24T02:17:52.465Z,81.18
2022-11-24T02:20:19.274Z,80.84
2022-11-24T02:23:04.131Z,81.07
2022-11-24T02:25:47.473Z,81.25
2022-11-24T02:28:15.790Z,84.49
2022-11-24T02:30:42.579Z,84.98
2022-11-24T02:33:10.278Z,85.40
2022-11-24T02:35:36.875Z,84.13
2022-11-24T02:38:03.509Z,83.46
2022-11-24T02:40:31.056Z,82.76
2022-11-24T02:43:06.494Z,80.78
2022-11-24T02:45:33.153Z,83.09
2022-11-24T02:47:59.854Z,84.80
2022-11-24T02:50:26.579Z,84.93
2022-11-24T02:52:53.317Z,84.50
2022-11-24T02:55:20.322Z,86.26
2022-11-24T02:57:46.980Z,89.27
2022-11-24T03:00:14.222Z,90.11
2022-11-24T03:02:40.987Z,89.72
2022-11-24T03:05:08.044Z,90.87
2022-11-24T03:07:34.757Z,90.27
2022-11-24T03:10:01.450Z,89.10
2022-11-24T03:12:28.116Z,88.03
2022-11-24T03:14:54.746Z,86.82
2022-11-24T03:17:21.437Z,88.81
2022-11-24T03:19:48.017Z,90.34
2022-11-24T03:22:14.724Z,90.67
2022-11-24T03:24:41.416Z,89.07
2022-11-24T03:27:08.135Z,87.94
2022-11-24T03:29:34.888Z,86.97
2022-11-24T03:32:01.841Z,86.24
2022-11-24T03:34:28.581Z,85.26
2022-11-24T03:36:55.352Z,85.22
2022-11-24T03:39:22.039Z,84.98
2022-11-24T03:41:51.362Z,85.00
2022-11-24T03:44:18.317Z,85.75
2022-11-24T03:46:45.171Z,85.39
2022-11-24T03:49:12.070Z,84.20
2022-11-24T03:51:38.686Z,84.82
2022-11-24T03:54:05.411Z,85.49
2022-11-24T03:56:32.090Z,85.92
2022-11-24T03:58:58.734Z,86.99
2022-11-24T04:01:25.537Z,88.46
2022-11-24T04:03:52.169Z,87.89
2022-11-24T04:06:18.832Z,88.40
2022-11-24T04:08:45.490Z,88.58
2022-11-24T04:11:32.188Z,88.98
2022-11-24T04:13:58.799Z,87.61
2022-11-24T04:16:25.496Z,88.12
2022-11-24T04:18:53.400Z,88.29
2022-11-24T04:21:20.396Z,87.73
2022-11-24T04:23:47.191Z,87.78
2022-11-24T04:26:13.939Z,87.13
2022-11-24T04:28:40.530Z,85.79
2022-11-24T04:31:07.187Z,86.28
2022-11-24T04:33:33.786Z,85.28
2022-11-24T04:36:00.443Z,84.33
2022-11-24T04:39:20.160Z,84.61
2022-11-24T04:41:13.794Z,84.80
2022-11-24T04:43:40.860Z,83.68
2022-11-24T04:46:09.523Z,83.33
2022-11-24T04:48:36.451Z,83.28
2022-11-24T04:51:06.554Z,82.97
2022-11-24T04:53:33.158Z,83.62
2022-11-24T04:55:59.803Z,84.15
2022-11-24T04:58:26.404Z,85.75
2022-11-24T05:00:53.074Z,84.87
2022-11-24T05:03:19.736Z,84.31
2022-11-24T05:05:46.318Z,83.75
2022-11-24T05:08:12.974Z,83.62
2022-11-24T05:10:40.169Z,84.48
2022-11-24T05:13:09.642Z,84.60
2022-11-24T05:15:40.357Z,85.11
2022-11-24T05:18:08.481Z,87.31
2022-11-24T05:20:35.358Z,88.29
2022-11-24T05:23:03.665Z,87.84
2022-11-24T05:25:30.302Z,87.68
2022-11-24T05:28:00.581Z,88.33
2022-11-24T05:30:27.697Z,89.22
2022-11-24T05:32:54.471Z,90.22
2022-11-24T05:35:21.694Z,88.95
2022-11-24T05:37:48.435Z,88.44
2022-11-24T05:40:15.495Z,88.56
2022-11-24T05:42:47.273Z,87.99
2022-11-24T05:45:19.157Z,87.49
2022-11-24T05:47:46.098Z,87.29
2022-11-24T05:50:14.011Z,87.17
2022-11-24T05:52:40.735Z,87.06
2022-11-24T05:55:08.264Z,87.12
2022-11-24T05:57:34.998Z,87.01
2022-11-24T06:00:02.040Z,86.72
2022-11-24T06:02:28.805Z,86.99
2022-11-24T06:04:55.521Z,87.62
2022-11-24T06:07:22.196Z,87.74
2022-11-24T06:09:48.965Z,86.11
2022-11-24T06:12:15.684Z,86.63
2022-11-24T06:14:42.397Z,87.04
2022-11-24T06:17:09.985Z,88.17
2022-11-24T06:19:41.725Z,88.47
2022-11-24T06:22:08.908Z,87.86
2022-11-24T06:24:35.832Z,86.96
2022-11-24T06:27:02.817Z,86.10
2022-11-24T06:29:29.383Z,86.49
2022-11-24T06:31:56.028Z,87.09
2022-11-24T06:34:22.701Z,87.40
2022-11-24T06:36:49.383Z,87.48
2022-11-24T06:39:16.159Z,86.91
2022-11-24T06:41:42.794Z,86.47
2022-11-24T06:44:09.486Z,86.25
2022-11-24T06:46:36.188Z,86.00
2022-11-24T06:49:03.000Z,87.08
2022-11-24T06:51:29.621Z,88.06
2022-11-24T06:53:56.406Z,88.29
2022-11-24T06:56:23.186Z,88.02
2022-11-24T06:58:51.025Z,86.82
2022-11-24T07:01:19.091Z,86.97
2022-11-24T07:03:45.895Z,84.68
2022-11-24T07:06:12.549Z,84.01
2022-11-24T07:08:39.269Z,84.48
2022-11-24T07:11:06.962Z,83.87
2022-11-24T07:13:33.683Z,84.59
2022-11-24T07:16:01.183Z,85.02
2022-11-24T07:18:27.872Z,85.24
2022-11-24T07:20:54.534Z,85.47
2022-11-24T07:23:21.296Z,86.02
2022-11-24T07:25:47.986Z,85.36
2022-11-24T07:28:14.928Z,85.87
2022-11-24T07:30:41.652Z,85.98
2022-11-24T07:33:08.269Z,84.69
2022-11-24T07:35:34.891Z,83.70
2022-11-24T07:38:01.827Z,84.59
2022-11-24T07:40:28.542Z,85.01
2022-11-24T07:42:55.297Z,84.83
2022-11-24T07:45:21.990Z,84.88
2022-11-24T07:47:48.588Z,84.15
2022-11-24T07:50:15.325Z,85.03
2022-11-24T07:52:42.011Z,85.22
2022-11-24T07:55:09.341Z,84.33
2022-11-24T07:57:35.987Z,84.63
2022-11-24T08:00:04.158Z,84.92
2022-11-24T08:02:30.800Z,84.84
2022-11-24T08:04:57.452Z,84.00
2022-11-24T08:07:24.353Z,82.56
2022-11-24T08:09:52.213Z,82.91
2022-11-24T08:12:21.795Z,82.00
2022-11-24T08:14:51.613Z,81.57
2022-11-24T08:17:18.553Z,81.42
2022-11-24T08:19:45.385Z,81.22
2022-11-24T08:22:12.221Z,79.88
2022-11-24T08:24:40.393Z,79.62
2022-11-24T08:27:07.131Z,78.27
2022-11-24T08:29:34.956Z,78.77
2022-11-24T08:32:01.728Z,78.31
2022-11-24T08:34:28.524Z,79.90
2022-11-24T08:36:55.224Z,80.78
2022-11-24T08:39:22.038Z,80.52
2022-11-24T08:41:48.818Z,80.34
2022-11-24T08:44:17.541Z,79.56
2022-11-24T08:46:44.943Z,80.61
2022-11-24T08:49:13.631Z,80.39
2022-11-24T08:51:40.370Z,78.92
2022-11-24T08:54:07.124Z,78.95
2022-11-24T08:56:33.918Z,78.32
2022-11-24T08:59:00.848Z,79.37
2022-11-24T09:01:27.875Z,79.47
2022-11-24T09:03:54.838Z,78.68
2022-11-24T09:06:23.736Z,78.40
2022-11-24T09:08:51.816Z,78.56
2022-11-24T09:11:18.796Z,77.27
2022-11-24T09:13:45.395Z,78.61
2022-11-24T09:16:17.172Z,79.09
2022-11-24T09:18:44.074Z,78.29
2022-11-24T09:21:18.756Z,78.39
2022-11-24T09:23:49.124Z,78.22
2022-11-24T09:26:17.673Z,78.25
2022-11-24T09:28:44.450Z,78.58
2022-11-24T09:31:12.766Z,79.11
2022-11-24T09:33:39.531Z,79.31
2022-11-24T09:36:06.665Z,79.11
2022-11-24T09:38:33.565Z,79.55
2022-11-24T09:41:18.240Z,80.51
2022-11-24T09:44:08.265Z,80.12
2022-11-24T09:46:54.869Z,81.03
2022-11-24T09:49:33.628Z,80.77
2022-11-24T09:52:02.649Z,80.88
2022-11-24T09:54:29.344Z,80.53
2022-11-24T09:56:57.897Z,80.51
2022-11-24T09:59:25.196Z,79.67
2022-11-24T10:01:52.168Z,80.49
2022-11-24T10:04:25.496Z,80.01
2022-11-24T10:07:07.274Z,79.12
2022-11-24T10:09:57.973Z,79.91
2022-11-24T10:12:35.012Z,79.46
2022-11-24T10:15:18.922Z,79.48
2022-11-24T10:18:05.474Z,79.59
2022-11-24T10:20:47.379Z,81.31
2022-11-24T10:23:22.939Z,81.33
2022-11-24T10:25:59.356Z,82.08
2022-11-24T10:28:54.139Z,81.44
2022-11-24T10:31:34.126Z,82.58
2022-11-24T10:34:10.792Z,82.54
2022-11-24T10:36:45.599Z,82.56
2022-11-24T10:39:18.261Z,82.27
2022-11-24T10:41:59.358Z,81.71
2022-11-24T10:44:26.072Z,81.38
2022-11-24T10:46:52.885Z,80.96
2022-11-24T10:49:25.145Z,80.74
2022-11-24T10:52:13.525Z,80.39
2022-11-24T10:54:59.693Z,80.76
2022-11-24T10:57:33.291Z,79.18
2022-11-24T11:00:00.706Z,79.13
2022-11-24T11:02:30.539Z,79.33
2022-11-24T11:04:57.339Z,78.93
2022-11-24T11:07:25.615Z,78.82
2022-11-24T11:10:17.646Z,77.80
2022-11-24T11:12:45.129Z,78.01
2022-11-24T11:15:29.889Z,78.46
2022-11-24T11:17:58.560Z,78.05
2022-11-24T11:20:33.663Z,78.06
2022-11-24T11:23:15.020Z,77.23
2022-11-24T11:25:41.586Z,75.79
2022-11-24T11:28:31.482Z,76.58
2022-11-24T11:31:21.124Z,77.14
2022-11-24T11:34:22.071Z,75.65
2022-11-24T11:36:54.029Z,76.50
2022-11-24T11:39:34.978Z,75.72
2022-11-24T11:42:45.354Z,76.27
2022-11-24T11:45:05.625Z,76.34
2022-11-24T11:47:38.007Z,75.95
2022-11-24T11:50:15.221Z,76.79
2022-11-24T11:52:59.057Z,75.68
2022-11-24T11:55:33.622Z,75.09
2022-11-24T11:58:12.258Z,75.09
2022-11-24T12:00:46.937Z,76.36
2022-11-24T12:03:16.690Z,75.90
2022-11-24T12:06:24.657Z,75.60
2022-11-24T12:09:20.722Z,76.76
2022-11-24T12:12:00.037Z,76.03
2022-11-24T12:14:39.098Z,76.31
2022-11-24T12:17:12.043Z,76.38
2022-11-24T12:19:53.802Z,77.08
2022-11-24T12:22:44.176Z,76.01
2022-11-24T12:25:27.799Z,76.70
2022-11-24T12:27:59.999Z,77.99
2022-11-24T12:30:26.690Z,76.80
2022-11-24T12:33:15.314Z,74.83
2022-11-24T12:35:43.773Z,75.21
2022-11-24T12:38:14.274Z,75.01
2022-11-24T12:44:01.114Z,77.13
2022-11-24T12:46:37.025Z,77.16
2022-11-24T12:49:33.166Z,76.80
2022-11-24T12:52:03.339Z,76.84
2022-11-24T12:54:36.943Z,76.64
2022-11-24T12:57:10.746Z,77.56
2022-11-24T13:00:03.618Z,77.30
2022-11-24T13:02:52.439Z,77.07
2022-11-24T13:05:21.502Z,77.02
2022-11-24T13:07:56.209Z,77.41
2022-11-24T13:10:53.709Z,77.94
2022-11-24T13:13:13.114Z,77.86
2022-11-24T13:16:34.708Z,76.70
2022-11-24T13:18:57.108Z,77.12
2022-11-24T13:21:33.011Z,76.20
2022-11-24T13:24:02.642Z,75.65
2022-11-24T13:26:48.624Z,78.89
2022-11-24T13:29:25.462Z,79.63
2022-11-24T13:31:52.405Z,78.29
2022-11-24T13:34:41.136Z,77.03
2022-11-24T13:37:32.103Z,78.17
2022-11-24T13:40:14.468Z,78.73
2022-11-24T13:43:10.531Z,77.19
2022-11-24T13:45:40.710Z,78.51
2022-11-24T13:48:20.175Z,79.61
2022-11-24T13:50:50.385Z,78.91
2022-11-24T13:53:40.350Z,79.20
2022-11-24T13:56:24.796Z,78.58
2022-11-24T13:58:52.334Z,78.64
2022-11-24T14:01:29.130Z,78.97
2022-11-24T14:07:09.768Z,76.75
2022-11-24T14:09:43.753Z,77.86
2022-11-24T14:12:13.465Z,77.98
2022-11-24T14:14:41.045Z,76.70
2022-11-24T14:17:17.376Z,75.98
2022-11-24T14:19:48.425Z,75.41
2022-11-24T14:22:26.777Z,74.96
2022-11-24T14:24:58.046Z,74.59
2022-11-24T14:27:42.776Z,74.60
2022-11-24T14:30:15.449Z,75.06
2022-11-24T14:32:59.253Z,75.28
2022-11-24T14:35:33.489Z,74.49
2022-11-24T14:38:02.085Z,74.81
2022-11-24T14:40:49.290Z,75.93
2022-11-24T14:43:25.888Z,76.68
2022-11-24T14:46:00.568Z,74.43
2022-11-24T14:48:32.265Z,75.11
2022-11-24T14:51:10.984Z,74.98
2022-11-24T14:53:41.398Z,75.79
2022-11-24T14:56:09.929Z,75.02
2022-11-24T14:58:41.988Z,75.36
2022-11-24T15:01:11.219Z,74.26
2022-11-24T15:03:37.833Z,77.08
2022-11-24T15:06:04.565Z,76.92
2022-11-24T15:08:35.991Z,77.45
2022-11-24T15:11:03.801Z,74.80
2022-11-24T15:13:34.916Z,76.57
2022-11-24T15:16:03.670Z,77.38
2022-11-24T15:18:38.258Z,77.12
2022-11-24T15:21:04.974Z,74.66
2022-11-24T15:23:32.277Z,74.41
2022-11-24T15:26:01.920Z,75.53
2022-11-24T15:28:29.844Z,74.95
2022-11-24T15:31:00.731Z,75.66
2022-11-24T15:33:27.628Z,75.04
2022-11-24T15:35:54.263Z,75.48
2022-11-24T15:38:21.146Z,72.63
2022-11-24T15:40:48.962Z,74.18
2022-11-24T15:43:27.897Z,73.74
2022-11-24T15:45:54.570Z,72.85
2022-11-24T15:48:21.260Z,70.85
2022-11-24T15:50:47.991Z,73.94
2022-11-24T15:53:25.822Z,72.15
2022-11-24T15:55:52.609Z,72.99
2022-11-24T15:58:19.377Z,72.66
2022-11-24T16:00:46.278Z,71.77
2022-11-24T16:03:45.180Z,69.92
2022-11-24T16:05:59.660Z,70.97
2022-11-24T16:08:26.395Z,72.79
2022-11-24T16:10:53.045Z,71.78
2022-11-24T16:13:19.667Z,72.69
2022-11-24T16:15:46.604Z,72.95
2022-11-24T16:18:14.037Z,70.28
2022-11-24T16:20:40.705Z,71.29
2022-11-24T16:23:07.443Z,71.65
2022-11-24T16:25:34.079Z,70.36
2022-11-24T16:28:00.800Z,73.27
2022-11-24T16:30:27.417Z,74.57
2022-11-24T16:32:54.136Z,74.25
2022-11-24T16:35:20.886Z,74.65
2022-11-24T16:37:49.562Z,74.65
2022-11-24T16:40:16.524Z,74.66
2022-11-24T16:42:43.154Z,74.78
2022-11-24T16:45:12.004Z,71.29
2022-11-24T16:47:40.194Z,71.52
2022-11-24T16:50:08.422Z,71.43
2022-11-24T16:52:35.127Z,72.76
2022-11-24T16:55:02.058Z,73.48
2022-11-24T16:57:28.766Z,72.69
2022-11-24T16:59:55.417Z,70.19
2022-11-24T17:02:22.318Z,74.18
2022-11-24T17:04:52.450Z,76.14
2022-11-24T17:07:19.863Z,74.76
2022-11-24T17:09:46.514Z,75.50
2022-11-24T17:12:13.212Z,75.44
2022-11-24T17:14:39.925Z,72.61
2022-11-24T17:17:06.606Z,72.93
2022-11-24T17:19:33.274Z,73.18
2022-11-24T17:21:59.970Z,73.25
2022-11-24T17:24:26.718Z,73.73
2022-11-24T17:26:53.401Z,72.63
2022-11-24T17:29:20.623Z,71.68
2022-11-24T17:31:47.755Z,71.13
2022-11-24T17:34:14.576Z,71.67
2022-11-24T17:36:44.689Z,71.60
2022-11-24T17:39:11.492Z,71.90
2022-11-24T17:41:38.204Z,72.06
2022-11-24T17:44:06.213Z,71.09
2022-11-24T17:46:33.065Z,72.50
2022-11-24T17:48:59.758Z,72.99
2022-11-24T17:51:26.765Z,71.27
2022-11-24T17:53:54.041Z,72.37
2022-11-24T17:56:25.431Z,72.54
2022-11-24T17:58:54.304Z,71.62
2022-11-24T18:01:21.182Z,70.66
2022-11-24T18:03:53.171Z,70.12
2022-11-24T18:06:20.726Z,70.12
2022-11-24T18:08:47.741Z,71.46
2022-11-24T18:11:16.263Z,71.84
2022-11-24T18:14:01.013Z,72.97
2022-11-24T18:16:30.198Z,72.83
2022-11-24T18:19:07.738Z,73.77
2022-11-24T18:21:35.171Z,72.90
2022-11-24T18:24:04.035Z,72.80
2022-11-24T18:26:30.735Z,72.66
2022-11-24T18:28:57.536Z,73.07
2022-11-24T18:31:24.284Z,73.55
2022-11-24T18:33:50.911Z,74.68
2022-11-24T18:36:18.918Z,74.31
2022-11-24T18:38:45.620Z,73.33
2022-11-24T18:41:13.297Z,74.59
2022-11-24T18:43:40.052Z,73.79
2022-11-24T18:46:07.864Z,75.00
2022-11-24T18:48:34.605Z,75.35
2022-11-24T18:51:01.461Z,75.03
2022-11-24T18:53:28.350Z,75.45
2022-11-24T18:56:02.212Z,75.44
2022-11-24T18:58:30.155Z,75.46
2022-11-24T19:01:09.096Z,74.97
2022-11-24T19:03:44.958Z,75.40
2022-11-24T19:06:23.131Z,75.84
2022-11-24T19:08:54.786Z,75.63
2022-11-24T19:11:23.084Z,75.45
2022-11-24T19:13:49.943Z,76.19
2022-11-24T19:16:17.893Z,76.77
2022-11-24T19:18:50.247Z,76.26
2022-11-24T19:21:20.061Z,76.89
2022-11-24T19:23:46.638Z,75.90
2022-11-24T19:26:13.320Z,75.51
2022-11-24T19:28:39.965Z,75.65
2022-11-24T19:31:08.213Z,75.61
2022-11-24T19:33:34.897Z,75.66
2022-11-24T19:36:10.938Z,76.14
2022-11-24T19:38:37.690Z,76.49
2022-11-24T19:41:08.508Z,76.18
2022-11-24T19:43:35.227Z,76.04
2022-11-24T19:46:08.623Z,75.75
2022-11-24T19:48:43.244Z,76.07
2022-11-24T19:51:14.649Z,76.03
2022-11-24T19:53:41.571Z,75.13
2022-11-24T19:56:10.223Z,74.64
2022-11-24T19:58:37.019Z,74.91
2022-11-24T20:01:11.517Z,74.77
2022-11-24T20:03:38.314Z,75.60
2022-11-24T20:06:05.554Z,75.44
2022-11-24T20:08:32.658Z,75.90
2022-11-24T20:11:16.314Z,76.05
2022-11-24T20:13:43.825Z,75.68
2022-11-24T20:16:20.119Z,74.93
2022-11-24T20:18:47.624Z,74.37
2022-11-24T20:21:16.453Z,74.09
2022-11-24T20:23:43.400Z,74.47
2022-11-24T20:26:14.858Z,74.20
2022-11-24T20:28:41.705Z,74.29
2022-11-24T20:31:10.401Z,73.37
2022-11-24T20:33:37.223Z,74.01
2022-11-24T20:36:03.841Z,73.85
2022-11-24T20:38:30.893Z,73.30
2022-11-24T20:41:09.059Z,73.13
2022-11-24T20:43:36.650Z,73.74
2022-11-24T20:46:10.093Z,73.97
2022-11-24T20:48:36.907Z,73.74
2022-11-24T20:51:17.525Z,73.15
2022-11-24T20:53:44.145Z,73.67
2022-11-24T20:56:18.953Z,72.89
2022-11-24T20:58:45.685Z,73.07
2022-11-24T21:01:22.456Z,72.49
2022-11-24T21:03:53.078Z,72.38
2022-11-24T21:06:19.717Z,72.97
2022-11-24T21:08:46.461Z,72.86
2022-11-24T21:11:14.127Z,73.52
2022-11-24T21:13:43.723Z,73.05
2022-11-24T21:16:18.322Z,73.70
2022-11-24T21:18:45.893Z,73.91
2022-11-24T21:21:12.987Z,72.87
2022-11-24T21:23:39.849Z,73.37
2022-11-24T21:26:11.478Z,73.80
2022-11-24T21:28:42.132Z,73.42
2022-11-24T21:31:10.580Z,73.47
2022-11-24T21:33:41.809Z,72.80
2022-11-24T21:36:08.845Z,72.98
2022-11-24T21:38:35.554Z,72.93
2022-11-24T21:41:06.215Z,73.41
2022-11-24T21:43:32.897Z,73.33
2022-11-24T21:46:02.900Z,72.85
2022-11-24T21:48:30.020Z,72.28
2022-11-24T21:51:00.548Z,73.30
2022-11-24T21:53:30.122Z,71.26
2022-11-24T21:55:57.426Z,71.84
2022-11-24T21:58:24.520Z,72.93
2022-11-24T22:00:51.353Z,72.41
2022-11-24T22:03:18.754Z,71.12
2022-11-24T22:05:55.458Z,70.94
2022-11-24T22:08:22.716Z,71.95
2022-11-24T22:10:49.396Z,71.42
2022-11-24T22:13:16.216Z,72.64
2022-11-24T22:15:42.840Z,71.16
2022-11-24T22:18:09.596Z,71.25
2022-11-24T22:20:36.390Z,72.23
2022-11-24T22:23:03.024Z,71.84
2022-11-24T22:25:29.738Z,72.35
2022-11-24T22:27:56.834Z,72.64
2022-11-24T22:30:23.477Z,73.38
2022-11-24T22:32:50.166Z,73.18
2022-11-24T22:35:16.739Z,72.70
2022-11-24T22:37:43.333Z,72.47
2022-11-24T22:40:10.177Z,72.43
2022-11-24T22:42:36.805Z,72.84
2022-11-24T22:45:03.684Z,72.98
2022-11-24T22:47:30.391Z,72.50
2022-11-24T22:49:56.973Z,72.74
2022-11-24T22:52:23.606Z,72.51
2022-11-24T22:54:50.381Z,72.57
2022-11-24T22:57:17.017Z,73.76
2022-11-24T22:59:43.589Z,73.34
2022-11-24T23:02:10.295Z,73.00
2022-11-24T23:04:37.177Z,73.14
2022-11-24T23:07:04.054Z,73.34
2022-11-24T23:09:30.669Z,73.80
2022-11-24T23:11:57.344Z,72.73
2022-11-24T23:14:24.204Z,73.42
2022-11-24T23:16:50.947Z,72.52
2022-11-24T23:19:17.901Z,71.90
2022-11-24T23:21:44.459Z,72.34
2022-11-24T23:24:11.180Z,72.74
2022-11-24T23:26:39.309Z,72.27
2022-11-24T23:29:06.365Z,71.96
2022-11-24T23:31:33.273Z,71.78
2022-11-24T23:34:01.381Z,71.85
2022-11-24T23:36:28.206Z,71.52
2022-11-24T23:38:54.939Z,72.11
2022-11-24T23:41:23.129Z,72.89
2022-11-24T23:43:49.852Z,73.16
2022-11-24T23:46:21.006Z,72.48
2022-11-24T23:48:48.075Z,72.73
2022-11-24T23:51:19.072Z,73.34
2022-11-24T23:53:45.900Z,72.94
2022-11-24T23:56:17.362Z,72.91
2022-11-24T23:58:44.225Z,73.30
